Time;durP1;ratioP1;P1;durP2;ratioP2;P2;SDS_P1;SDS_P2;PMS_P1;PMS_P2;Temp;Humidity;BMP_temperature;BMP_pressure;BME280_temperature;BME280_humidity;BME280_pressure;Samples;Min_cycle;Max_cycle;Signal;HPM_P1;HPM_P2
2023/01/25 00:01:29;;;;;;;17.50;9.80;;;;;;;;;;5081212;28;20036;-81
2023/01/25 00:03:55;;;;;;;18.33;9.85;;;;;;;;;;5095271;28;20027;-81
2023/01/25 00:06:20;;;;;;;15.57;9.48;;;;;;;;;;5097996;28;20020;-81
2023/01/25 00:08:52;;;;;;;16.30;9.05;;;;;;;;;;5101522;28;20066;-81
2023/01/25 00:11:18;;;;;;;16.77;9.48;;;;;;;;;;5099069;28;20036;-81
2023/01/25 00:13:44;;;;;;;14.88;8.73;;;;;;;;;;5097125;28;20032;-81
2023/01/25 00:16:09;;;;;;;17.88;9.77;;;;;;;;;;5098431;28;20081;-81
2023/01/25 00:18:35;;;;;;;19.30;10.27;;;;;;;;;;5103305;28;20114;-81
2023/01/25 00:21:12;;;;;;;17.05;9.45;;;;;;;;;;5094974;28;20028;-81
2023/01/25 00:23:37;;;;;;;15.50;9.32;;;;;;;;;;5090166;28;20028;-81
2023/01/25 00:26:03;;;;;;;18.48;10.02;;;;;;;;;;5092218;28;20059;-81
2023/01/25 00:28:28;;;;;;;18.77;10.02;;;;;;;;;;5091675;28;20055;-81
2023/01/25 00:30:59;;;;;;;18.25;10.68;;;;;;;;;;5089959;28;20042;-81
2023/01/25 00:33:36;;;;;;;19.45;10.02;;;;;;;;;;5089348;28;20479;-81
2023/01/25 00:36:20;;;;;;;19.80;10.68;;;;;;;;;;5094084;28;20076;-80
2023/01/25 00:38:46;;;;;;;18.75;10.57;;;;;;;;;;5094812;28;20025;-81
2023/01/25 00:41:12;;;;;;;19.58;10.98;;;;;;;;;;5095458;28;20030;-81
2023/01/25 00:43:37;;;;;;;18.27;10.63;;;;;;;;;;5090177;28;20106;-81
2023/01/25 00:46:02;;;;;;;19.00;10.45;;;;;;;;;;5091739;28;20054;-81
2023/01/25 00:48:28;;;;;;;18.00;10.70;;;;;;;;;;5098519;28;20447;-81
2023/01/25 00:50:53;;;;;;;19.98;9.70;;;;;;;;;;5095769;28;20024;-81
2023/01/25 00:53:19;;;;;;;20.02;10.80;;;;;;;;;;5096085;28;20031;-81
2023/01/25 00:55:51;;;;;;;18.52;10.23;;;;;;;;;;5098193;28;20045;-81
2023/01/25 00:58:16;;;;;;;19.50;10.43;;;;;;;;;;5094582;28;20078;-81
2023/01/25 01:00:42;;;;;;;19.05;10.82;;;;;;;;;;5098013;28;20541;-81
2023/01/25 01:03:07;;;;;;;19.33;10.55;;;;;;;;;;5096758;28;20087;-81
2023/01/25 01:05:35;;;;;;;18.58;10.73;;;;;;;;;;5095929;28;20036;-81
2023/01/25 01:08:00;;;;;;;18.30;10.40;;;;;;;;;;5100585;28;20073;-81
2023/01/25 01:10:25;;;;;;;18.55;10.05;;;;;;;;;;5101049;27;20022;-81
2023/01/25 01:12:51;;;;;;;18.88;10.88;;;;;;;;;;5102552;28;20105;-81
2023/01/25 01:15:16;;;;;;;18.42;9.55;;;;;;;;;;5096573;28;20031;-81
2023/01/25 01:17:42;;;;;;;17.85;9.90;;;;;;;;;;5096037;28;20364;-81
2023/01/25 01:20:08;;;;;;;18.42;10.55;;;;;;;;;;5093729;28;20016;-81
2023/01/25 01:22:33;;;;;;;18.45;10.68;;;;;;;;;;5093892;28;20039;-81
2023/01/25 01:24:59;;;;;;;18.85;11.10;;;;;;;;;;5091156;28;20066;-81
2023/01/25 01:27:24;;;;;;;18.58;10.38;;;;;;;;;;5099427;28;20016;-81
2023/01/25 01:29:49;;;;;;;19.75;10.75;;;;;;;;;;5095178;28;20039;-81
2023/01/25 01:32:15;;;;;;;19.65;11.13;;;;;;;;;;5093837;28;20312;-81
2023/01/25 01:34:40;;;;;;;19.83;11.48;;;;;;;;;;5093464;28;20081;-81
2023/01/25 01:37:06;;;;;;;20.23;10.88;;;;;;;;;;5093557;28;20136;-81
2023/01/25 01:39:31;;;;;;;19.77;10.77;;;;;;;;;;5088077;28;20039;-81
2023/01/25 01:41:56;;;;;;;21.15;11.68;;;;;;;;;;5095612;28;20024;-81
2023/01/25 01:44:45;;;;;;;19.98;10.85;;;;;;;;;;5088598;28;20024;-81
2023/01/25 01:47:17;;;;;;;19.48;11.45;;;;;;;;;;5081078;28;20045;-81
2023/01/25 01:50:00;;;;;;;20.33;11.10;;;;;;;;;;5096249;28;20027;-81
2023/01/25 01:52:33;;;;;;;19.43;11.10;;;;;;;;;;5097870;28;20585;-81
2023/01/25 01:55:10;;;;;;;17.48;9.73;;;;;;;;;;5122356;27;20028;-81
2023/01/25 01:57:49;;;;;;;20.23;11.50;;;;;;;;;;5103704;27;20119;-81
2023/01/25 02:00:21;;;;;;;16.77;9.63;;;;;;;;;;5092026;28;20388;-80
2023/01/25 02:09:06;;;;;;;19.08;10.60;;;;;;;;;;5353291;22;20414;-81
2023/01/25 02:11:33;;;;;;;22.35;11.68;;;;;;;;;;5023961;28;20032;-80
2023/01/25 02:14:00;;;;;;;22.00;11.85;;;;;;;;;;5008211;28;20044;-81
2023/01/25 02:16:27;;;;;;;21.02;11.82;;;;;;;;;;5008366;28;20069;-81
2023/01/25 02:18:55;;;;;;;19.02;11.07;;;;;;;;;;5028907;28;20514;-81
2023/01/25 02:21:23;;;;;;;20.67;11.25;;;;;;;;;;5024486;28;20366;-80
2023/01/25 02:24:06;;;;;;;20.50;11.68;;;;;;;;;;5022533;28;20026;-81
2023/01/25 02:26:32;;;;;;;;;;;;;;;;;;5010020;28;20160;-81
2023/01/25 02:29:06;;;;;;;19.70;11.07;;;;;;;;;;5000515;28;20403;-81
2023/01/25 02:31:32;;;;;;;20.05;11.18;;;;;;;;;;4984315;28;20071;-81
2023/01/25 02:33:57;;;;;;;20.83;11.73;;;;;;;;;;5007773;28;20057;-81
2023/01/25 02:36:30;;;;;;;20.30;11.55;;;;;;;;;;5019004;28;20034;-81
2023/01/25 02:39:06;;;;;;;20.30;11.40;;;;;;;;;;5019567;28;20037;-81
2023/01/25 02:41:37;;;;;;;20.80;11.38;;;;;;;;;;5004460;28;20076;-81
2023/01/25 02:44:10;;;;;;;22.77;11.75;;;;;;;;;;4995255;28;20366;-81
2023/01/25 02:46:38;;;;;;;21.90;12.20;;;;;;;;;;5021104;28;20025;-81
2023/01/25 02:49:05;;;;;;;22.67;12.13;;;;;;;;;;5020983;28;20088;-81
2023/01/25 02:51:33;;;;;;;23.55;11.88;;;;;;;;;;5011407;28;20441;-80
2023/01/25 02:54:00;;;;;;;24.20;12.23;;;;;;;;;;5026042;28;20033;-81
2023/01/25 02:56:26;;;;;;;22.88;12.75;;;;;;;;;;5026985;28;20033;-81
2023/01/25 02:58:51;;;;;;;21.48;12.63;;;;;;;;;;5008495;28;20033;-80
2023/01/25 03:01:17;;;;;;;25.23;12.93;;;;;;;;;;5000896;28;20049;-81
2023/01/25 03:03:42;;;;;;;21.35;11.45;;;;;;;;;;5008905;28;20026;-81
2023/01/25 03:06:07;;;;;;;23.05;12.30;;;;;;;;;;5024837;28;20029;-80
2023/01/25 03:08:34;;;;;;;20.30;11.27;;;;;;;;;;5006707;28;20045;-81
2023/01/25 03:11:01;;;;;;;21.67;12.20;;;;;;;;;;5006055;28;20689;-80
2023/01/25 03:13:27;;;;;;;20.92;11.27;;;;;;;;;;5027129;28;20099;-81
2023/01/25 03:15:59;;;;;;;19.92;10.98;;;;;;;;;;5025665;28;20025;-81
2023/01/25 03:18:24;;;;;;;20.33;10.93;;;;;;;;;;5022768;28;20492;-81
2023/01/25 03:20:50;;;;;;;20.83;11.68;;;;;;;;;;5024351;28;20068;-81
2023/01/25 03:23:15;;;;;;;22.13;11.68;;;;;;;;;;5008616;28;20059;-81
2023/01/25 03:25:41;;;;;;;24.10;12.38;;;;;;;;;;5009168;28;20115;-81
2023/01/25 03:28:06;;;;;;;21.30;11.30;;;;;;;;;;5005842;28;20029;-81
2023/01/25 03:30:32;;;;;;;22.27;11.48;;;;;;;;;;5004688;28;20068;-81
2023/01/25 03:32:57;;;;;;;21.48;11.40;;;;;;;;;;5005915;28;20033;-81
2023/01/25 03:35:22;;;;;;;23.02;12.00;;;;;;;;;;5027029;28;20042;-81
2023/01/25 03:37:48;;;;;;;22.45;12.45;;;;;;;;;;5010193;28;20025;-81
2023/01/25 03:40:13;;;;;;;22.25;12.40;;;;;;;;;;5005324;28;20056;-81
2023/01/25 03:42:39;;;;;;;26.60;13.15;;;;;;;;;;5008285;28;20036;-81
2023/01/25 03:45:05;;;;;;;25.90;13.93;;;;;;;;;;5021482;28;20060;-81
2023/01/25 03:47:30;;;;;;;23.63;13.38;;;;;;;;;;5007065;28;20032;-81
2023/01/25 03:49:55;;;;;;;23.35;13.18;;;;;;;;;;5012452;28;20026;-81
2023/01/25 03:52:23;;;;;;;21.95;12.57;;;;;;;;;;5007486;28;20033;-81
2023/01/25 03:54:48;;;;;;;24.98;13.35;;;;;;;;;;5010712;28;20030;-81
2023/01/25 03:57:14;;;;;;;21.50;12.18;;;;;;;;;;5029616;28;20484;-81
2023/01/25 03:59:39;;;;;;;22.60;11.90;;;;;;;;;;5008852;28;20109;-81
2023/01/25 04:02:05;;;;;;;23.80;12.52;;;;;;;;;;5009546;28;20098;-81
2023/01/25 04:04:30;;;;;;;23.90;13.02;;;;;;;;;;5018177;28;20021;-81
2023/01/25 04:06:55;;;;;;;21.98;11.93;;;;;;;;;;5009459;28;20048;-81
2023/01/25 04:09:21;;;;;;;22.45;12.30;;;;;;;;;;5014846;28;20064;-81
2023/01/25 04:11:50;;;;;;;24.35;13.07;;;;;;;;;;5031418;28;20052;-81
2023/01/25 04:14:15;;;;;;;22.67;11.80;;;;;;;;;;5030615;28;20392;-81
2023/01/25 04:16:41;;;;;;;22.98;12.88;;;;;;;;;;5029415;28;20036;-81
2023/01/25 04:19:06;;;;;;;25.52;13.43;;;;;;;;;;5026854;28;20138;-81
2023/01/25 04:21:32;;;;;;;25.05;12.70;;;;;;;;;;5007514;28;20534;-81
2023/01/25 04:23:57;;;;;;;24.92;13.57;;;;;;;;;;5028030;28;20117;-81
2023/01/25 04:26:22;;;;;;;24.73;12.88;;;;;;;;;;5021071;28;20113;-80
2023/01/25 04:28:49;;;;;;;25.65;13.43;;;;;;;;;;5018649;28;20194;-81
2023/01/25 04:31:14;;;;;;;23.60;13.13;;;;;;;;;;5008019;28;20060;-81
2023/01/25 04:33:40;;;;;;;24.90;13.10;;;;;;;;;;5004533;28;20118;-81
2023/01/25 04:36:05;;;;;;;25.17;13.70;;;;;;;;;;5021987;28;20025;-81
2023/01/25 04:38:31;;;;;;;24.50;13.45;;;;;;;;;;5025426;28;20026;-81
2023/01/25 04:40:56;;;;;;;24.88;12.98;;;;;;;;;;5023332;28;20477;-81
2023/01/25 04:43:22;;;;;;;26.90;14.95;;;;;;;;;;5008428;28;20040;-81
2023/01/25 04:45:47;;;;;;;24.48;13.75;;;;;;;;;;5022054;28;20034;-81
2023/01/25 04:48:13;;;;;;;26.83;13.45;;;;;;;;;;5014214;28;20104;-81
2023/01/25 04:50:40;;;;;;;25.30;13.68;;;;;;;;;;5022081;28;20032;-80
2023/01/25 04:53:07;;;;;;;26.90;14.48;;;;;;;;;;5024673;28;20025;-81
2023/01/25 04:55:33;;;;;;;26.58;14.13;;;;;;;;;;5007569;28;20304;-81
2023/01/25 04:57:59;;;;;;;26.13;14.32;;;;;;;;;;5023991;28;20026;-81
2023/01/25 05:00:25;;;;;;;26.15;14.77;;;;;;;;;;5024890;28;20038;-80
2023/01/25 05:02:51;;;;;;;29.25;14.32;;;;;;;;;;5009168;28;20029;-81
2023/01/25 05:05:16;;;;;;;27.67;13.85;;;;;;;;;;5030099;28;20025;-80
2023/01/25 05:07:42;;;;;;;25.02;13.88;;;;;;;;;;5025560;28;20444;-81
2023/01/25 05:10:08;;;;;;;31.48;15.52;;;;;;;;;;5012536;28;20036;-81
2023/01/25 05:12:34;;;;;;;26.92;14.40;;;;;;;;;;5009422;28;20508;-81
2023/01/25 05:14:59;;;;;;;32.63;15.90;;;;;;;;;;5011683;28;20029;-81
2023/01/25 05:17:25;;;;;;;29.92;14.73;;;;;;;;;;5005820;28;20083;-80
2023/01/25 05:19:50;;;;;;;29.05;15.05;;;;;;;;;;5013369;28;20037;-81
2023/01/25 05:22:25;;;;;;;28.02;14.85;;;;;;;;;;4992613;28;20481;-81
2023/01/25 05:24:50;;;;;;;27.95;14.65;;;;;;;;;;5026761;28;20154;-81
2023/01/25 05:27:18;;;;;;;27.58;14.90;;;;;;;;;;5009521;28;20118;-81
2023/01/25 05:29:45;;;;;;;29.25;15.40;;;;;;;;;;5007945;28;20022;-81
2023/01/25 05:32:22;;;;;;;27.52;14.30;;;;;;;;;;5005231;28;20424;-80
2023/01/25 05:34:48;;;;;;;30.02;15.43;;;;;;;;;;5008454;28;20519;-81
2023/01/25 05:37:16;;;;;;;31.55;15.13;;;;;;;;;;5027652;28;20025;-81
2023/01/25 05:39:41;;;;;;;28.52;14.85;;;;;;;;;;5028196;28;20044;-81
2023/01/25 05:42:17;;;;;;;31.63;15.63;;;;;;;;;;5009178;28;20083;-81
2023/01/25 05:44:44;;;;;;;31.20;14.85;;;;;;;;;;5006529;28;20480;-81
2023/01/25 05:47:14;;;;;;;28.40;14.90;;;;;;;;;;5025730;28;20156;-81
2023/01/25 05:49:39;;;;;;;32.05;15.95;;;;;;;;;;5025139;28;20393;-81
2023/01/25 05:52:05;;;;;;;32.83;15.95;;;;;;;;;;5010505;28;20040;-81
2023/01/25 05:54:30;;;;;;;30.77;15.73;;;;;;;;;;5031844;28;20037;-81
2023/01/25 05:56:55;;;;;;;31.65;15.50;;;;;;;;;;5028144;28;20033;-81
2023/01/25 05:59:21;;;;;;;29.55;14.88;;;;;;;;;;5007692;28;20041;-81
2023/01/25 06:01:46;;;;;;;31.73;17.02;;;;;;;;;;5006582;28;20485;-81
2023/01/25 06:04:14;;;;;;;31.60;16.15;;;;;;;;;;5018015;28;20034;-81
2023/01/25 06:06:39;;;;;;;33.80;16.30;;;;;;;;;;5022863;28;20051;-81
2023/01/25 06:09:05;;;;;;;29.25;15.00;;;;;;;;;;5008201;28;20404;-80
2023/01/25 06:11:30;;;;;;;31.40;15.60;;;;;;;;;;5021853;28;20092;-81
2023/01/25 06:13:55;;;;;;;32.13;15.98;;;;;;;;;;5006765;28;20048;-81
2023/01/25 06:16:21;;;;;;;30.52;16.38;;;;;;;;;;5027846;28;20037;-81
2023/01/25 06:18:47;;;;;;;33.75;16.30;;;;;;;;;;5025178;28;20104;-81
2023/01/25 06:21:12;;;;;;;32.78;16.42;;;;;;;;;;5006065;28;20026;-81
2023/01/25 06:23:38;;;;;;;32.60;15.30;;;;;;;;;;5028268;28;20079;-81
2023/01/25 06:26:12;;;;;;;34.95;16.55;;;;;;;;;;5012269;28;20487;-81
2023/01/25 06:28:38;;;;;;;35.75;17.27;;;;;;;;;;5008390;28;20025;-81
2023/01/25 06:31:06;;;;;;;32.28;15.82;;;;;;;;;;5008789;28;20397;-81
2023/01/25 06:33:32;;;;;;;33.72;16.27;;;;;;;;;;5004615;28;20375;-81
2023/01/25 06:36:06;;;;;;;32.63;17.25;;;;;;;;;;5007856;28;20071;-81
2023/01/25 06:38:32;;;;;;;35.78;17.38;;;;;;;;;;5026411;28;20370;-81
2023/01/25 06:41:02;;;;;;;33.67;16.73;;;;;;;;;;5019113;28;20072;-81
2023/01/25 06:43:29;;;;;;;30.42;15.25;;;;;;;;;;5011139;28;20034;-81
2023/01/25 06:46:06;;;;;;;37.25;17.20;;;;;;;;;;5008522;28;20040;-81
2023/01/25 06:48:32;;;;;;;34.38;16.30;;;;;;;;;;5020123;28;20147;-81
2023/01/25 06:51:01;;;;;;;32.72;15.40;;;;;;;;;;5015045;28;20635;-81
2023/01/25 06:53:29;;;;;;;35.55;17.35;;;;;;;;;;4998944;28;20476;-81
2023/01/25 06:56:06;;;;;;;38.03;18.02;;;;;;;;;;4994813;28;20037;-81
2023/01/25 06:58:32;;;;;;;38.78;17.58;;;;;;;;;;5016011;28;20038;-81
2023/01/25 07:01:19;;;;;;;37.45;18.50;;;;;;;;;;5015823;28;20036;-81
2023/01/25 07:03:49;;;;;;;36.08;17.85;;;;;;;;;;5024575;28;20079;-81
2023/01/25 07:06:14;;;;;;;38.08;17.85;;;;;;;;;;5011419;28;20029;-81
2023/01/25 07:08:40;;;;;;;36.13;16.80;;;;;;;;;;5013748;28;20098;-81
2023/01/25 07:11:12;;;;;;;35.42;17.00;;;;;;;;;;5027981;28;20025;-81
2023/01/25 07:13:39;;;;;;;38.13;18.27;;;;;;;;;;5011147;28;20048;-81
2023/01/25 07:16:07;;;;;;;37.60;16.75;;;;;;;;;;5004690;28;20056;-80
2023/01/25 07:18:36;;;;;;;39.10;18.30;;;;;;;;;;5023964;28;20481;-80
2023/01/25 07:21:22;;;;;;;34.65;16.63;;;;;;;;;;5007361;28;20029;-81
2023/01/25 07:23:49;;;;;;;33.40;16.65;;;;;;;;;;5011721;28;20057;-81
2023/01/25 07:26:22;;;;;;;36.28;16.90;;;;;;;;;;5027321;28;20029;-81
2023/01/25 07:28:48;;;;;;;;;;;;;;;;;;5024136;28;20030;-81
2023/01/25 07:31:14;;;;;;;31.88;14.60;;;;;;;;;;5011288;28;19921;-81
2023/01/25 07:33:40;;;;;;;42.20;19.02;;;;;;;;;;5001630;28;20035;-81
2023/01/25 07:36:08;;;;;;;36.67;17.20;;;;;;;;;;5014189;28;20112;-81
2023/01/25 07:38:35;;;;;;;42.22;18.50;;;;;;;;;;5010910;28;20084;-81
2023/01/25 07:41:00;;;;;;;38.60;17.83;;;;;;;;;;5011907;28;20033;-81
2023/01/25 07:43:26;;;;;;;43.13;19.85;;;;;;;;;;5029379;28;20029;-81
2023/01/25 07:45:52;;;;;;;40.83;19.88;;;;;;;;;;5014944;28;20029;-81
2023/01/25 07:48:19;;;;;;;41.90;18.55;;;;;;;;;;5035916;28;20021;-81
2023/01/25 07:50:48;;;;;;;41.00;18.55;;;;;;;;;;5005339;28;20037;-81
2023/01/25 07:53:14;;;;;;;36.42;17.83;;;;;;;;;;5009677;28;20025;-81
2023/01/25 07:55:40;;;;;;;39.35;17.05;;;;;;;;;;5006576;28;20116;-81
2023/01/25 07:58:05;;;;;;;36.92;16.33;;;;;;;;;;5024978;28;20116;-81
2023/01/25 08:00:31;;;;;;;38.50;18.08;;;;;;;;;;5020329;28;20029;-81
2023/01/25 08:02:56;;;;;;;35.67;17.08;;;;;;;;;;5028417;28;20029;-82
2023/01/25 08:05:22;;;;;;;40.70;18.23;;;;;;;;;;5010020;28;20508;-81
2023/01/25 08:07:47;;;;;;;39.63;18.10;;;;;;;;;;5007703;28;20017;-81
2023/01/25 08:10:13;;;;;;;40.97;18.63;;;;;;;;;;5011486;28;20025;-81
2023/01/25 08:12:38;;;;;;;42.75;19.73;;;;;;;;;;5018217;28;20370;-81
2023/01/25 08:15:04;;;;;;;42.40;18.38;;;;;;;;;;5011634;28;20035;-81
2023/01/25 08:17:31;;;;;;;42.97;19.27;;;;;;;;;;5029056;28;20120;-81
2023/01/25 08:19:58;;;;;;;40.15;18.27;;;;;;;;;;5010853;28;20035;-81
2023/01/25 08:22:24;;;;;;;42.88;20.48;;;;;;;;;;5031239;28;20021;-81
2023/01/25 08:24:49;;;;;;;41.40;17.50;;;;;;;;;;5016911;28;20036;-81
2023/01/25 08:27:15;;;;;;;38.90;18.73;;;;;;;;;;5033044;28;20144;-81
2023/01/25 08:29:40;;;;;;;36.90;17.70;;;;;;;;;;5033869;28;20033;-81
2023/01/25 08:32:06;;;;;;;38.65;18.50;;;;;;;;;;5015905;28;20072;-81
2023/01/25 08:34:33;;;;;;;36.25;17.27;;;;;;;;;;5021986;28;20037;-81
2023/01/25 08:36:58;;;;;;;35.97;16.25;;;;;;;;;;5014829;28;20369;-81
2023/01/25 08:39:24;;;;;;;39.88;17.23;;;;;;;;;;5017845;28;20059;-81
2023/01/25 08:41:50;;;;;;;38.40;18.55;;;;;;;;;;5018256;28;20032;-81
2023/01/25 08:44:15;;;;;;;37.95;17.83;;;;;;;;;;5030004;28;20144;-81
2023/01/25 08:46:40;;;;;;;39.08;18.35;;;;;;;;;;5023676;28;20021;-81
2023/01/25 08:49:08;;;;;;;32.72;16.63;;;;;;;;;;5013942;28;20100;-81
2023/01/25 08:51:33;;;;;;;36.65;17.80;;;;;;;;;;5030403;28;20021;-81
2023/01/25 08:54:06;;;;;;;38.83;18.25;;;;;;;;;;5026072;28;20029;-81
2023/01/25 08:56:31;;;;;;;39.15;17.30;;;;;;;;;;5033313;28;20029;-81
2023/01/25 08:58:57;;;;;;;39.65;18.02;;;;;;;;;;5015273;28;20033;-81
2023/01/25 09:01:22;;;;;;;33.33;16.40;;;;;;;;;;5032110;28;20025;-81
2023/01/25 09:03:49;;;;;;;37.05;17.00;;;;;;;;;;5013013;28;20044;-81
2023/01/25 09:06:15;;;;;;;39.10;17.92;;;;;;;;;;5011937;28;20021;-81
2023/01/25 09:08:41;;;;;;;38.53;17.38;;;;;;;;;;5007427;28;21013;-82
2023/01/25 09:11:09;;;;;;;39.35;17.73;;;;;;;;;;5036023;28;20017;-81
2023/01/25 09:13:35;;;;;;;36.03;17.92;;;;;;;;;;5013544;28;20542;-81
2023/01/25 09:16:01;;;;;;;39.05;18.63;;;;;;;;;;5010632;28;20030;-81
2023/01/25 09:18:27;;;;;;;36.22;17.45;;;;;;;;;;5029162;28;20021;-81
2023/01/25 09:20:53;;;;;;;36.35;17.10;;;;;;;;;;5025589;28;20144;-81
2023/01/25 09:23:21;;;;;;;39.00;17.83;;;;;;;;;;5018068;28;20201;-81
2023/01/25 09:25:47;;;;;;;33.63;17.50;;;;;;;;;;5027053;28;20065;-81
2023/01/25 09:28:12;;;;;;;36.65;16.85;;;;;;;;;;5029622;28;20061;-81
2023/01/25 09:30:38;;;;;;;34.45;16.60;;;;;;;;;;5015476;28;20060;-81
2023/01/25 09:33:03;;;;;;;35.55;16.55;;;;;;;;;;5016400;28;20043;-81
2023/01/25 09:35:30;;;;;;;37.85;17.30;;;;;;;;;;5032394;28;20448;-81
2023/01/25 09:37:55;;;;;;;33.88;16.55;;;;;;;;;;5010271;28;20392;-81
2023/01/25 09:40:26;;;;;;;35.05;16.65;;;;;;;;;;5014729;28;20034;-81
2023/01/25 09:43:15;;;;;;;36.85;16.63;;;;;;;;;;5033882;28;20112;-81
2023/01/25 09:45:41;;;;;;;36.75;16.25;;;;;;;;;;5011276;28;20388;-81
2023/01/25 09:48:22;;;;;;;37.42;17.30;;;;;;;;;;5016099;28;20028;-81
2023/01/25 09:50:57;;;;;;;36.47;17.52;;;;;;;;;;5021592;28;20168;-81
2023/01/25 09:53:23;;;;;;;38.85;17.90;;;;;;;;;;5007954;28;20038;-81
2023/01/25 09:55:57;;;;;;;33.92;16.70;;;;;;;;;;5014784;28;20128;-81
2023/01/25 09:58:36;;;;;;;38.92;18.05;;;;;;;;;;5018230;28;20432;-81
2023/01/25 10:01:17;;;;;;;36.50;17.35;;;;;;;;;;5024648;28;20025;-81
2023/01/25 10:03:51;;;;;;;39.88;17.48;;;;;;;;;;5013955;28;20092;-81
2023/01/25 10:06:22;;;;;;;34.50;16.15;;;;;;;;;;5012451;28;20031;-81
2023/01/25 10:08:57;;;;;;;34.42;16.30;;;;;;;;;;5014181;28;20452;-81
2023/01/25 10:11:29;;;;;;;35.75;16.90;;;;;;;;;;5031718;28;20556;-81
2023/01/25 10:13:56;;;;;;;35.90;17.30;;;;;;;;;;5022583;28;20284;-82
2023/01/25 10:16:36;;;;;;;42.13;17.35;;;;;;;;;;5029893;28;20547;-81
2023/01/25 10:19:29;;;;;;;34.45;16.25;;;;;;;;;;5019986;28;20108;-81
2023/01/25 10:22:03;;;;;;;36.25;16.60;;;;;;;;;;5027873;28;20025;-81
2023/01/25 10:24:42;;;;;;;38.85;16.92;;;;;;;;;;5029391;28;20525;-81
2023/01/25 10:27:46;;;;;;;36.00;15.90;;;;;;;;;;5028327;28;20022;-81
2023/01/25 10:31:02;;;;;;;36.63;16.98;;;;;;;;;;5019491;28;20045;-81
2023/01/25 10:33:31;;;;;;;30.88;14.90;;;;;;;;;;4949019;28;20031;-81
2023/01/25 10:36:00;;;;;;;34.88;16.02;;;;;;;;;;4931782;29;20027;-81
2023/01/25 10:38:33;;;;;;;38.22;17.88;;;;;;;;;;4988829;28;20059;-81
2023/01/25 10:41:18;;;;;;;;;;;;;;;;;;5027477;28;20535;-80
2023/01/25 10:43:44;;;;;;;35.67;16.30;;;;;;;;;;5023249;28;20368;-81
2023/01/25 10:46:24;;;;;;;38.60;16.58;;;;;;;;;;5003085;28;20071;-81
2023/01/25 10:48:49;;;;;;;39.58;17.45;;;;;;;;;;5018297;28;20026;-81
2023/01/25 10:51:29;;;;;;;36.88;16.45;;;;;;;;;;5023337;28;20481;-81
2023/01/25 10:54:00;;;;;;;36.25;15.40;;;;;;;;;;5023944;28;20079;-81
2023/01/25 10:56:27;;;;;;;36.13;15.93;;;;;;;;;;5004785;28;20077;-81
2023/01/25 10:59:24;;;;;;;37.50;17.13;;;;;;;;;;5027439;28;20473;-82
2023/01/25 11:01:49;;;;;;;35.90;16.05;;;;;;;;;;5028180;28;20022;-81
2023/01/25 11:04:29;;;;;;;36.95;17.77;;;;;;;;;;5016940;28;20048;-81
2023/01/25 11:06:55;;;;;;;38.05;16.15;;;;;;;;;;5032026;28;20065;-81
2023/01/25 11:09:20;;;;;;;37.28;17.30;;;;;;;;;;5031542;28;20370;-81
2023/01/25 11:11:57;;;;;;;43.00;18.67;;;;;;;;;;5030843;28;20068;-81
2023/01/25 11:14:26;;;;;;;37.42;17.02;;;;;;;;;;5032410;28;20034;-81
2023/01/25 11:16:52;;;;;;;34.80;16.80;;;;;;;;;;5036994;28;20038;-81
2023/01/25 11:19:23;;;;;;;37.55;17.17;;;;;;;;;;5032798;28;20488;-81
2023/01/25 11:21:57;;;;;;;38.10;17.08;;;;;;;;;;5021839;28;20037;-81
2023/01/25 11:24:31;;;;;;;38.17;17.15;;;;;;;;;;5011497;28;20029;-81
2023/01/25 11:27:15;;;;;;;35.70;15.55;;;;;;;;;;5013237;28;20079;-81
2023/01/25 11:29:40;;;;;;;31.23;14.82;;;;;;;;;;5028841;28;20083;-81
2023/01/25 11:32:20;;;;;;;32.92;14.55;;;;;;;;;;5010113;28;20057;-80
2023/01/25 11:34:46;;;;;;;33.38;15.40;;;;;;;;;;5026681;28;20041;-81
2023/01/25 11:37:27;;;;;;;38.97;17.75;;;;;;;;;;5027793;28;20026;-81
2023/01/25 11:40:14;;;;;;;32.78;15.15;;;;;;;;;;5032406;28;20013;-81
2023/01/25 11:42:46;;;;;;;35.63;15.85;;;;;;;;;;5006969;28;20028;-81
2023/01/25 11:45:20;;;;;;;45.75;19.90;;;;;;;;;;5017788;28;20033;-81
2023/01/25 11:48:21;;;;;;;34.40;16.45;;;;;;;;;;5023367;28;20119;-81
2023/01/25 11:50:55;;;;;;;31.20;14.35;;;;;;;;;;5020589;28;20488;-81
2023/01/25 11:53:58;;;;;;;30.73;14.90;;;;;;;;;;5025761;28;20473;-81
2023/01/25 11:56:38;;;;;;;34.13;13.40;;;;;;;;;;5018274;28;20025;-81
2023/01/25 11:59:42;;;;;;;32.60;14.27;;;;;;;;;;5003583;28;20030;-81
2023/01/25 12:02:27;;;;;;;34.13;15.60;;;;;;;;;;5026350;28;20492;-81
2023/01/25 12:05:13;;;;;;;31.20;14.40;;;;;;;;;;5027827;28;20381;-81
2023/01/25 12:08:02;;;;;;;36.55;16.40;;;;;;;;;;5013507;28;20029;-81
2023/01/25 12:10:41;;;;;;;38.75;16.73;;;;;;;;;;5003939;28;20028;-81
2023/01/25 12:13:26;;;;;;;37.33;16.90;;;;;;;;;;5013726;28;20054;-81
2023/01/25 12:16:13;;;;;;;35.05;15.68;;;;;;;;;;5023059;28;20033;-80
2023/01/25 12:19:10;;;;;;;37.10;16.40;;;;;;;;;;5013553;28;20508;-81
2023/01/25 12:22:08;;;;;;;34.47;13.52;;;;;;;;;;5026055;28;20053;-81
2023/01/25 12:24:48;;;;;;;34.03;15.68;;;;;;;;;;5011909;28;20049;-81
2023/01/25 12:27:23;;;;;;;40.15;18.50;;;;;;;;;;5030603;28;20100;-81
2023/01/25 12:30:28;;;;;;;36.78;15.77;;;;;;;;;;5009959;28;20504;-81
2023/01/25 12:33:02;;;;;;;41.63;16.65;;;;;;;;;;5017432;28;20064;-81
2023/01/25 12:35:43;;;;;;;43.67;18.33;;;;;;;;;;5020060;28;20493;-81
2023/01/25 12:38:16;;;;;;;38.30;16.67;;;;;;;;;;5022921;28;20149;-81
2023/01/25 12:41:01;;;;;;;36.30;15.95;;;;;;;;;;5011927;28;20040;-81
2023/01/25 12:43:44;;;;;;;37.25;16.50;;;;;;;;;;5025728;28;20076;-81
2023/01/25 12:46:23;;;;;;;38.22;16.77;;;;;;;;;;5024658;28;20535;-81
2023/01/25 12:48:52;;;;;;;36.97;15.90;;;;;;;;;;5029488;28;20473;-81
2023/01/25 12:51:20;;;;;;;38.47;16.20;;;;;;;;;;5009767;28;20030;-81
2023/01/25 12:53:46;;;;;;;36.33;15.18;;;;;;;;;;5025946;28;20025;-81
2023/01/25 12:56:35;;;;;;;40.42;17.13;;;;;;;;;;5028059;28;20396;-81
2023/01/25 12:59:21;;;;;;;41.15;17.48;;;;;;;;;;5009410;28;20473;-81
2023/01/25 13:01:53;;;;;;;42.50;17.55;;;;;;;;;;5009315;28;20528;-81
2023/01/25 13:04:30;;;;;;;43.20;18.02;;;;;;;;;;5005407;28;20048;-80
2023/01/25 13:07:16;;;;;;;45.75;17.88;;;;;;;;;;5043236;28;20030;-81
2023/01/25 13:10:00;;;;;;;42.58;17.80;;;;;;;;;;5032003;28;20560;-81
2023/01/25 13:12:26;;;;;;;39.33;15.73;;;;;;;;;;5016607;28;20033;-81
2023/01/25 13:14:52;;;;;;;37.85;15.75;;;;;;;;;;5018133;28;20021;-81
2023/01/25 13:17:37;;;;;;;43.13;17.80;;;;;;;;;;5024904;28;20727;-81
2023/01/25 13:20:54;;;;;;;41.53;17.55;;;;;;;;;;5013483;28;20516;-81
2023/01/25 13:23:44;;;;;;;47.33;18.38;;;;;;;;;;4970333;28;20593;-81
2023/01/25 13:26:22;;;;;;;41.83;16.65;;;;;;;;;;5028687;28;20104;-81
2023/01/25 13:28:51;;;;;;;41.22;16.85;;;;;;;;;;5033328;28;20031;-81
2023/01/25 13:31:38;;;;;;;40.55;16.58;;;;;;;;;;5031619;28;20493;-81
2023/01/25 13:34:39;;;;;;;48.28;18.30;;;;;;;;;;5030412;28;20084;-81
2023/01/25 13:37:24;;;;;;;47.55;19.42;;;;;;;;;;4992992;28;20029;-81
2023/01/25 13:39:53;;;;;;;46.55;18.15;;;;;;;;;;5029350;28;20405;-81
2023/01/25 13:42:24;;;;;;;46.22;18.83;;;;;;;;;;5010561;28;20389;-81
2023/01/25 13:45:17;;;;;;;46.53;18.80;;;;;;;;;;5031569;28;20021;-81
2023/01/25 13:47:57;;;;;;;48.10;20.10;;;;;;;;;;5004649;28;20378;-80
2023/01/25 13:50:31;;;;;;;50.22;20.10;;;;;;;;;;5015069;28;20120;-81
2023/01/25 13:53:25;;;;;;;47.10;18.77;;;;;;;;;;5010853;28;20029;-81
2023/01/25 13:55:55;;;;;;;43.80;18.25;;;;;;;;;;5031788;28;20065;-81
2023/01/25 13:58:25;;;;;;;47.58;19.58;;;;;;;;;;5015576;28;20512;-81
2023/01/25 14:00:57;;;;;;;50.08;19.60;;;;;;;;;;5016331;28;20033;-80
2023/01/25 14:03:44;;;;;;;49.22;19.90;;;;;;;;;;5034176;28;20363;-80
2023/01/25 14:06:22;;;;;;;47.58;18.80;;;;;;;;;;5032789;28;20028;-80
2023/01/25 14:08:49;;;;;;;52.17;19.67;;;;;;;;;;5008859;28;20027;-80
2023/01/25 14:11:23;;;;;;;49.35;18.27;;;;;;;;;;5012224;28;20057;-81
2023/01/25 14:14:26;;;;;;;47.00;18.05;;;;;;;;;;5028909;28;20456;-81
2023/01/25 14:17:09;;;;;;;49.35;20.05;;;;;;;;;;4979069;28;20440;-81
2023/01/25 14:19:36;;;;;;;49.25;19.65;;;;;;;;;;5036516;28;20476;-81
2023/01/25 14:22:30;;;;;;;53.72;20.50;;;;;;;;;;5016265;28;20037;-81
2023/01/25 14:25:09;;;;;;;51.85;18.60;;;;;;;;;;5010934;28;20397;-81
2023/01/25 14:27:41;;;;;;;52.05;18.75;;;;;;;;;;5016010;28;20393;-81
2023/01/25 14:30:16;;;;;;;52.07;19.80;;;;;;;;;;5032093;28;20026;-81
2023/01/25 14:32:41;;;;;;;57.28;20.23;;;;;;;;;;5009019;28;20044;-81
2023/01/25 14:35:29;;;;;;;48.92;19.25;;;;;;;;;;5015774;28;20029;-81
2023/01/25 14:37:56;;;;;;;53.45;19.67;;;;;;;;;;5031812;28;20041;-81
2023/01/25 14:40:24;;;;;;;51.67;20.08;;;;;;;;;;5030240;28;20029;-81
2023/01/25 14:42:51;;;;;;;50.58;20.83;;;;;;;;;;5028101;28;20031;-81
2023/01/25 14:45:17;;;;;;;47.10;18.65;;;;;;;;;;5013549;28;20105;-81
2023/01/25 14:47:42;;;;;;;54.97;20.77;;;;;;;;;;5019919;28;20500;-81